Weather at Aurora Municipal Airport

Public forecast

Using degrees Fahrenheit for public forecast. Weather courtesy of forecast.io.

Current aviation weather report (METAR) for Aurora Municipal Airport

Retrieved 2021/09/25 10:52 UTC (47 minutes ago):

KARR 251052Z AUTO 24003KT 10SM CLR 07/07 A3002 RMK AO2 SLP166 T00720067

Closest aviation forecast (TAF) to Aurora Municipal Airport

Closest forecast is Dupage Airport, 13.0 nm (24.1 km) NE. Retrieved 2021/09/25 06:30 UTC (5 hours ago):

TAF KDPA 250527Z 2506/2606 31011KT P6SM SCT025 OVC100 FM250700 28011KT P6SM FEW025 SCT250 FM251600 27014G24KT P6SM SCT200 FM260000 24009KT P6SM FEW120